sensor_id;sensor_type;location;lat;lon;timestamp;temperature;humidity
19908;DHT22;10116;53.112;7.356;2024-01-30T00:01:15;22.50;39.60
19908;DHT22;10116;53.112;7.356;2024-01-30T00:03:41;22.50;38.10
19908;DHT22;10116;53.112;7.356;2024-01-30T00:06:07;22.50;38.10
19908;DHT22;10116;53.112;7.356;2024-01-30T00:08:33;22.50;39.40
19908;DHT22;10116;53.112;7.356;2024-01-30T00:10:59;22.50;38.30
19908;DHT22;10116;53.112;7.356;2024-01-30T00:13:25;22.50;38.40
19908;DHT22;10116;53.112;7.356;2024-01-30T00:15:50;22.50;38.30
19908;DHT22;10116;53.112;7.356;2024-01-30T00:18:16;22.50;38.80
19908;DHT22;10116;53.112;7.356;2024-01-30T00:20:42;22.50;38.60
19908;DHT22;10116;53.112;7.356;2024-01-30T00:23:08;22.50;38.20
19908;DHT22;10116;53.112;7.356;2024-01-30T00:25:34;22.40;38.50
19908;DHT22;10116;53.112;7.356;2024-01-30T00:28:00;22.50;38.00
19908;DHT22;10116;53.112;7.356;2024-01-30T00:30:25;22.40;38.50
19908;DHT22;10116;53.112;7.356;2024-01-30T00:32:51;22.40;38.10
19908;DHT22;10116;53.112;7.356;2024-01-30T00:35:16;22.40;37.90
19908;DHT22;10116;53.112;7.356;2024-01-30T00:37:42;22.40;38.30
19908;DHT22;10116;53.112;7.356;2024-01-30T00:40:08;22.40;38.10
19908;DHT22;10116;53.112;7.356;2024-01-30T00:42:35;22.40;38.10
19908;DHT22;10116;53.112;7.356;2024-01-30T00:45:01;22.40;38.60
19908;DHT22;10116;53.112;7.356;2024-01-30T00:47:27;22.40;38.10
19908;DHT22;10116;53.112;7.356;2024-01-30T00:49:54;22.40;38.60
19908;DHT22;10116;53.112;7.356;2024-01-30T00:52:20;22.50;40.00
19908;DHT22;10116;53.112;7.356;2024-01-30T00:54:45;22.50;39.60
19908;DHT22;10116;53.112;7.356;2024-01-30T00:57:11;22.50;40.40
19908;DHT22;10116;53.112;7.356;2024-01-30T00:59:37;22.60;41.30
19908;DHT22;10116;53.112;7.356;2024-01-30T01:02:03;22.60;41.10
19908;DHT22;10116;53.112;7.356;2024-01-30T01:04:29;22.60;41.50
19908;DHT22;10116;53.112;7.356;2024-01-30T01:06:55;22.60;42.80
19908;DHT22;10116;53.112;7.356;2024-01-30T01:09:20;22.70;41.70
19908;DHT22;10116;53.112;7.356;2024-01-30T01:11:46;22.70;41.90
19908;DHT22;10116;53.112;7.356;2024-01-30T01:14:12;22.70;42.10
19908;DHT22;10116;53.112;7.356;2024-01-30T01:16:37;22.70;41.50
19908;DHT22;10116;53.112;7.356;2024-01-30T01:19:03;22.70;41.90
19908;DHT22;10116;53.112;7.356;2024-01-30T01:21:29;22.70;41.80
19908;DHT22;10116;53.112;7.356;2024-01-30T01:23:54;22.70;42.00
19908;DHT22;10116;53.112;7.356;2024-01-30T01:26:20;22.60;41.70
19908;DHT22;10116;53.112;7.356;2024-01-30T01:28:46;22.70;41.40
19908;DHT22;10116;53.112;7.356;2024-01-30T01:31:12;22.60;42.00
19908;DHT22;10116;53.112;7.356;2024-01-30T01:33:38;22.60;41.30
19908;DHT22;10116;53.112;7.356;2024-01-30T01:36:03;22.60;41.40
19908;DHT22;10116;53.112;7.356;2024-01-30T01:38:29;22.60;41.50
19908;DHT22;10116;53.112;7.356;2024-01-30T01:40:55;22.60;42.00
19908;DHT22;10116;53.112;7.356;2024-01-30T01:43:21;22.60;41.30
19908;DHT22;10116;53.112;7.356;2024-01-30T01:45:46;22.60;42.90
19908;DHT22;10116;53.112;7.356;2024-01-30T01:48:12;22.60;41.60
19908;DHT22;10116;53.112;7.356;2024-01-30T01:50:38;22.60;41.00
19908;DHT22;10116;53.112;7.356;2024-01-30T01:53:07;22.60;41.40
19908;DHT22;10116;53.112;7.356;2024-01-30T01:55:34;22.60;42.00
19908;DHT22;10116;53.112;7.356;2024-01-30T01:58:01;22.60;41.10
19908;DHT22;10116;53.112;7.356;2024-01-30T02:00:27;22.60;41.40
19908;DHT22;10116;53.112;7.356;2024-01-30T02:02:54;22.60;40.90
19908;DHT22;10116;53.112;7.356;2024-01-30T02:05:21;22.60;41.00
19908;DHT22;10116;53.112;7.356;2024-01-30T02:07:47;22.60;41.60
19908;DHT22;10116;53.112;7.356;2024-01-30T02:10:13;22.60;41.20
19908;DHT22;10116;53.112;7.356;2024-01-30T02:12:39;22.60;41.70
19908;DHT22;10116;53.112;7.356;2024-01-30T02:15:05;22.60;40.80
19908;DHT22;10116;53.112;7.356;2024-01-30T02:17:32;22.60;40.90
19908;DHT22;10116;53.112;7.356;2024-01-30T02:19:58;22.60;41.20
19908;DHT22;10116;53.112;7.356;2024-01-30T02:22:24;22.50;41.40
19908;DHT22;10116;53.112;7.356;2024-01-30T02:24:50;22.50;40.80
19908;DHT22;10116;53.112;7.356;2024-01-30T02:27:15;22.50;41.10
19908;DHT22;10116;53.112;7.356;2024-01-30T02:29:41;22.60;53.80
19908;DHT22;10116;53.112;7.356;2024-01-30T02:32:06;22.50;40.90
19908;DHT22;10116;53.112;7.356;2024-01-30T02:34:33;22.50;41.40
19908;DHT22;10116;53.112;7.356;2024-01-30T02:36:59;22.50;42.20
19908;DHT22;10116;53.112;7.356;2024-01-30T02:39:25;22.60;41.30
19908;DHT22;10116;53.112;7.356;2024-01-30T02:41:50;22.50;41.00
19908;DHT22;10116;53.112;7.356;2024-01-30T02:44:16;22.50;41.10
19908;DHT22;10116;53.112;7.356;2024-01-30T02:46:42;22.50;40.90
19908;DHT22;10116;53.112;7.356;2024-01-30T02:49:07;22.50;41.00
19908;DHT22;10116;53.112;7.356;2024-01-30T02:51:33;22.50;41.10
19908;DHT22;10116;53.112;7.356;2024-01-30T02:53:59;22.50;40.70
19908;DHT22;10116;53.112;7.356;2024-01-30T02:56:24;22.50;40.80
19908;DHT22;10116;53.112;7.356;2024-01-30T02:58:50;22.50;41.10
19908;DHT22;10116;53.112;7.356;2024-01-30T03:01:16;22.50;41.70
19908;DHT22;10116;53.112;7.356;2024-01-30T03:03:41;22.50;40.90
19908;DHT22;10116;53.112;7.356;2024-01-30T03:06:08;22.50;40.70
19908;DHT22;10116;53.112;7.356;2024-01-30T03:08:34;22.50;41.00
19908;DHT22;10116;53.112;7.356;2024-01-30T03:11:00;22.50;41.20
19908;DHT22;10116;53.112;7.356;2024-01-30T03:13:27;22.50;41.20
19908;DHT22;10116;53.112;7.356;2024-01-30T03:15:52;22.50;41.10
19908;DHT22;10116;53.112;7.356;2024-01-30T03:18:18;22.50;40.70
19908;DHT22;10116;53.112;7.356;2024-01-30T03:20:43;22.50;41.10
19908;DHT22;10116;53.112;7.356;2024-01-30T03:23:09;22.50;40.80
19908;DHT22;10116;53.112;7.356;2024-01-30T03:25:34;22.50;41.40
19908;DHT22;10116;53.112;7.356;2024-01-30T03:28:00;22.50;40.70
19908;DHT22;10116;53.112;7.356;2024-01-30T03:30:26;22.50;41.30
19908;DHT22;10116;53.112;7.356;2024-01-30T03:32:51;22.50;41.00
19908;DHT22;10116;53.112;7.356;2024-01-30T03:35:19;22.50;41.20
19908;DHT22;10116;53.112;7.356;2024-01-30T03:37:44;22.50;41.40
19908;DHT22;10116;53.112;7.356;2024-01-30T03:40:10;22.50;41.70
19908;DHT22;10116;53.112;7.356;2024-01-30T03:42:36;22.50;40.70
19908;DHT22;10116;53.112;7.356;2024-01-30T03:45:02;22.50;40.90
19908;DHT22;10116;53.112;7.356;2024-01-30T03:47:28;22.40;41.90
19908;DHT22;10116;53.112;7.356;2024-01-30T03:49:53;22.40;41.10
19908;DHT22;10116;53.112;7.356;2024-01-30T03:52:19;22.40;42.50
19908;DHT22;10116;53.112;7.356;2024-01-30T03:54:45;22.40;40.80
19908;DHT22;10116;53.112;7.356;2024-01-30T03:57:11;22.50;41.10
19908;DHT22;10116;53.112;7.356;2024-01-30T03:59:36;22.50;41.00
19908;DHT22;10116;53.112;7.356;2024-01-30T04:02:02;22.50;42.10
19908;DHT22;10116;53.112;7.356;2024-01-30T04:04:28;22.50;41.20
19908;DHT22;10116;53.112;7.356;2024-01-30T04:06:53;22.50;41.30
19908;DHT22;10116;53.112;7.356;2024-01-30T04:09:19;22.50;41.10
19908;DHT22;10116;53.112;7.356;2024-01-30T04:11:45;22.50;41.90
19908;DHT22;10116;53.112;7.356;2024-01-30T04:14:10;22.50;42.10
19908;DHT22;10116;53.112;7.356;2024-01-30T04:16:36;22.50;41.50
19908;DHT22;10116;53.112;7.356;2024-01-30T04:19:02;22.50;41.70
19908;DHT22;10116;53.112;7.356;2024-01-30T04:21:27;22.50;41.30
19908;DHT22;10116;53.112;7.356;2024-01-30T04:23:53;22.50;41.70
19908;DHT22;10116;53.112;7.356;2024-01-30T04:26:19;22.50;41.50
19908;DHT22;10116;53.112;7.356;2024-01-30T04:28:45;22.50;42.10
19908;DHT22;10116;53.112;7.356;2024-01-30T04:31:11;22.50;42.80
19908;DHT22;10116;53.112;7.356;2024-01-30T04:33:37;22.60;43.20
19908;DHT22;10116;53.112;7.356;2024-01-30T04:36:03;22.60;44.00
19908;DHT22;10116;53.112;7.356;2024-01-30T04:38:29;22.70;44.30
19908;DHT22;10116;53.112;7.356;2024-01-30T04:40:55;22.80;45.20
19908;DHT22;10116;53.112;7.356;2024-01-30T04:43:21;22.80;46.00
19908;DHT22;10116;53.112;7.356;2024-01-30T04:45:47;22.90;46.60
19908;DHT22;10116;53.112;7.356;2024-01-30T04:48:13;22.90;47.50
19908;DHT22;10116;53.112;7.356;2024-01-30T04:50:39;22.90;47.00
19908;DHT22;10116;53.112;7.356;2024-01-30T04:53:04;23.00;48.00
19908;DHT22;10116;53.112;7.356;2024-01-30T04:55:30;23.00;48.30
19908;DHT22;10116;53.112;7.356;2024-01-30T04:57:56;23.00;47.20
19908;DHT22;10116;53.112;7.356;2024-01-30T05:00:21;23.00;47.40
19908;DHT22;10116;53.112;7.356;2024-01-30T05:02:47;23.00;47.40
19908;DHT22;10116;53.112;7.356;2024-01-30T05:05:12;23.00;48.10
19908;DHT22;10116;53.112;7.356;2024-01-30T05:07:40;23.00;47.10
19908;DHT22;10116;53.112;7.356;2024-01-30T05:10:06;23.00;47.10
19908;DHT22;10116;53.112;7.356;2024-01-30T05:12:32;23.00;48.60
19908;DHT22;10116;53.112;7.356;2024-01-30T05:14:58;23.00;47.30
19908;DHT22;10116;53.112;7.356;2024-01-30T05:17:23;23.00;46.60
19908;DHT22;10116;53.112;7.356;2024-01-30T05:19:49;23.00;47.30
19908;DHT22;10116;53.112;7.356;2024-01-30T05:22:15;23.00;46.70
19908;DHT22;10116;53.112;7.356;2024-01-30T05:24:41;23.00;47.70
19908;DHT22;10116;53.112;7.356;2024-01-30T05:27:08;23.00;46.90
19908;DHT22;10116;53.112;7.356;2024-01-30T05:29:33;23.00;47.20
19908;DHT22;10116;53.112;7.356;2024-01-30T05:31:59;23.00;46.70
19908;DHT22;10116;53.112;7.356;2024-01-30T05:34:25;23.00;47.20
19908;DHT22;10116;53.112;7.356;2024-01-30T05:36:50;23.00;46.70
19908;DHT22;10116;53.112;7.356;2024-01-30T05:39:16;23.00;51.20
19908;DHT22;10116;53.112;7.356;2024-01-30T05:41:42;23.00;47.00
19908;DHT22;10116;53.112;7.356;2024-01-30T05:44:07;23.00;46.70
19908;DHT22;10116;53.112;7.356;2024-01-30T05:46:35;23.00;46.70
19908;DHT22;10116;53.112;7.356;2024-01-30T05:49:00;23.00;46.40
19908;DHT22;10116;53.112;7.356;2024-01-30T05:51:26;23.00;47.50
19908;DHT22;10116;53.112;7.356;2024-01-30T05:53:53;23.00;46.60
19908;DHT22;10116;53.112;7.356;2024-01-30T05:56:19;22.90;46.10
19908;DHT22;10116;53.112;7.356;2024-01-30T05:58:44;22.90;46.00
19908;DHT22;10116;53.112;7.356;2024-01-30T06:01:10;22.90;46.10
19908;DHT22;10116;53.112;7.356;2024-01-30T06:03:36;22.90;47.20
19908;DHT22;10116;53.112;7.356;2024-01-30T06:06:02;22.90;45.80
19908;DHT22;10116;53.112;7.356;2024-01-30T06:08:28;22.90;45.80
19908;DHT22;10116;53.112;7.356;2024-01-30T06:10:53;22.90;46.30
19908;DHT22;10116;53.112;7.356;2024-01-30T06:13:19;22.80;45.10
19908;DHT22;10116;53.112;7.356;2024-01-30T06:15:45;22.80;45.00
19908;DHT22;10116;53.112;7.356;2024-01-30T06:18:11;22.90;46.10
19908;DHT22;10116;53.112;7.356;2024-01-30T06:20:36;22.90;46.30
19908;DHT22;10116;53.112;7.356;2024-01-30T06:23:02;22.90;47.10
19908;DHT22;10116;53.112;7.356;2024-01-30T06:25:27;23.00;47.20
19908;DHT22;10116;53.112;7.356;2024-01-30T06:27:53;23.00;47.90
19908;DHT22;10116;53.112;7.356;2024-01-30T06:30:19;23.00;48.00
19908;DHT22;10116;53.112;7.356;2024-01-30T06:32:44;23.00;48.70
19908;DHT22;10116;53.112;7.356;2024-01-30T06:35:10;23.00;47.80
19908;DHT22;10116;53.112;7.356;2024-01-30T06:37:36;23.00;47.90
19908;DHT22;10116;53.112;7.356;2024-01-30T06:40:03;23.00;47.50
19908;DHT22;10116;53.112;7.356;2024-01-30T06:42:31;23.00;47.90
19908;DHT22;10116;53.112;7.356;2024-01-30T06:44:56;23.00;47.60
19908;DHT22;10116;53.112;7.356;2024-01-30T06:47:22;23.00;48.50
19908;DHT22;10116;53.112;7.356;2024-01-30T06:49:48;23.00;47.50
19908;DHT22;10116;53.112;7.356;2024-01-30T06:52:14;23.00;47.10
19908;DHT22;10116;53.112;7.356;2024-01-30T06:54:39;22.90;47.00
19908;DHT22;10116;53.112;7.356;2024-01-30T06:57:05;22.90;46.60
19908;DHT22;10116;53.112;7.356;2024-01-30T06:59:34;22.90;46.60
19908;DHT22;10116;53.112;7.356;2024-01-30T07:02:00;22.90;46.50
19908;DHT22;10116;53.112;7.356;2024-01-30T07:04:26;22.80;45.20
19908;DHT22;10116;53.112;7.356;2024-01-30T07:06:51;22.80;45.10
19908;DHT22;10116;53.112;7.356;2024-01-30T07:09:18;22.80;45.00
19908;DHT22;10116;53.112;7.356;2024-01-30T07:11:44;22.70;44.30
19908;DHT22;10116;53.112;7.356;2024-01-30T07:14:10;22.70;44.00
19908;DHT22;10116;53.112;7.356;2024-01-30T07:16:36;22.70;43.90
19908;DHT22;10116;53.112;7.356;2024-01-30T07:19:01;22.70;44.20
19908;DHT22;10116;53.112;7.356;2024-01-30T07:21:27;22.60;43.40
19908;DHT22;10116;53.112;7.356;2024-01-30T07:23:57;22.60;43.10
19908;DHT22;10116;53.112;7.356;2024-01-30T07:26:22;22.60;43.10
19908;DHT22;10116;53.112;7.356;2024-01-30T07:28:48;22.60;43.50
19908;DHT22;10116;53.112;7.356;2024-01-30T07:31:15;22.60;43.60
19908;DHT22;10116;53.112;7.356;2024-01-30T07:33:41;22.60;42.90
19908;DHT22;10116;53.112;7.356;2024-01-30T07:36:06;22.50;43.10
19908;DHT22;10116;53.112;7.356;2024-01-30T07:38:32;22.50;42.10
19908;DHT22;10116;53.112;7.356;2024-01-30T07:40:58;22.50;42.30
19908;DHT22;10116;53.112;7.356;2024-01-30T07:43:24;22.50;42.70
19908;DHT22;10116;53.112;7.356;2024-01-30T07:45:49;22.50;43.70
19908;DHT22;10116;53.112;7.356;2024-01-30T07:48:15;22.60;44.30
19908;DHT22;10116;53.112;7.356;2024-01-30T07:50:40;22.60;44.60
19908;DHT22;10116;53.112;7.356;2024-01-30T07:53:06;22.60;45.30
19908;DHT22;10116;53.112;7.356;2024-01-30T07:55:32;22.70;45.50
19908;DHT22;10116;53.112;7.356;2024-01-30T07:57:58;22.70;45.30
19908;DHT22;10116;53.112;7.356;2024-01-30T08:00:27;22.70;46.30
19908;DHT22;10116;53.112;7.356;2024-01-30T08:02:54;22.80;46.10
19908;DHT22;10116;53.112;7.356;2024-01-30T08:05:21;22.80;46.20
19908;DHT22;10116;53.112;7.356;2024-01-30T08:07:48;22.80;46.90
19908;DHT22;10116;53.112;7.356;2024-01-30T08:10:14;22.80;47.10
19908;DHT22;10116;53.112;7.356;2024-01-30T08:12:40;22.80;46.00
19908;DHT22;10116;53.112;7.356;2024-01-30T08:15:07;22.80;46.10
19908;DHT22;10116;53.112;7.356;2024-01-30T08:17:33;22.70;47.10
19908;DHT22;10116;53.112;7.356;2024-01-30T08:19:59;22.80;46.60
19908;DHT22;10116;53.112;7.356;2024-01-30T08:22:24;22.70;46.50
19908;DHT22;10116;53.112;7.356;2024-01-30T08:24:50;22.70;46.00
19908;DHT22;10116;53.112;7.356;2024-01-30T08:27:16;22.70;46.30
19908;DHT22;10116;53.112;7.356;2024-01-30T08:29:42;22.60;46.40
19908;DHT22;10116;53.112;7.356;2024-01-30T08:32:07;22.70;46.50
19908;DHT22;10116;53.112;7.356;2024-01-30T08:34:33;22.60;46.70
19908;DHT22;10116;53.112;7.356;2024-01-30T08:36:59;22.60;46.40
19908;DHT22;10116;53.112;7.356;2024-01-30T08:39:25;22.60;46.60
19908;DHT22;10116;53.112;7.356;2024-01-30T08:41:50;22.60;46.10
19908;DHT22;10116;53.112;7.356;2024-01-30T08:44:16;22.60;46.20
19908;DHT22;10116;53.112;7.356;2024-01-30T08:46:43;22.50;46.40
19908;DHT22;10116;53.112;7.356;2024-01-30T08:49:10;22.60;46.10
19908;DHT22;10116;53.112;7.356;2024-01-30T08:51:35;22.50;45.30
19908;DHT22;10116;53.112;7.356;2024-01-30T08:54:02;22.50;46.80
19908;DHT22;10116;53.112;7.356;2024-01-30T08:56:28;22.40;56.60
19908;DHT22;10116;53.112;7.356;2024-01-30T08:58:53;22.40;44.60
19908;DHT22;10116;53.112;7.356;2024-01-30T09:01:19;22.40;57.70
19908;DHT22;10116;53.112;7.356;2024-01-30T09:03:45;22.40;44.60
19908;DHT22;10116;53.112;7.356;2024-01-30T09:06:12;22.40;45.10
19908;DHT22;10116;53.112;7.356;2024-01-30T09:08:38;22.50;45.30
19908;DHT22;10116;53.112;7.356;2024-01-30T09:11:14;22.50;46.40
19908;DHT22;10116;53.112;7.356;2024-01-30T09:13:40;22.50;46.60
19908;DHT22;10116;53.112;7.356;2024-01-30T09:16:06;22.60;48.00
19908;DHT22;10116;53.112;7.356;2024-01-30T09:18:32;22.60;47.80
19908;DHT22;10116;53.112;7.356;2024-01-30T09:20:58;22.70;49.20
19908;DHT22;10116;53.112;7.356;2024-01-30T09:23:24;22.70;48.80
19908;DHT22;10116;53.112;7.356;2024-01-30T09:25:50;22.70;49.10
19908;DHT22;10116;53.112;7.356;2024-01-30T09:28:17;22.80;49.40
19908;DHT22;10116;53.112;7.356;2024-01-30T09:30:42;22.80;49.50
19908;DHT22;10116;53.112;7.356;2024-01-30T09:33:08;22.80;49.90
19908;DHT22;10116;53.112;7.356;2024-01-30T09:35:33;22.80;49.70
19908;DHT22;10116;53.112;7.356;2024-01-30T09:37:59;22.80;49.50
19908;DHT22;10116;53.112;7.356;2024-01-30T09:40:25;22.80;50.30
19908;DHT22;10116;53.112;7.356;2024-01-30T09:42:51;22.80;49.40
19908;DHT22;10116;53.112;7.356;2024-01-30T09:45:24;22.80;49.60
19908;DHT22;10116;53.112;7.356;2024-01-30T09:47:50;22.80;49.80
19908;DHT22;10116;53.112;7.356;2024-01-30T09:50:17;22.80;50.00
19908;DHT22;10116;53.112;7.356;2024-01-30T09:52:46;22.80;49.30
19908;DHT22;10116;53.112;7.356;2024-01-30T09:55:13;22.80;49.10
19908;DHT22;10116;53.112;7.356;2024-01-30T09:57:39;22.70;49.20
19908;DHT22;10116;53.112;7.356;2024-01-30T10:00:05;22.70;61.70
19908;DHT22;10116;53.112;7.356;2024-01-30T10:02:35;22.70;48.90
19908;DHT22;10116;53.112;7.356;2024-01-30T10:05:01;22.70;49.40
19908;DHT22;10116;53.112;7.356;2024-01-30T10:07:27;22.70;49.10
19908;DHT22;10116;53.112;7.356;2024-01-30T10:09:53;22.70;49.10
19908;DHT22;10116;53.112;7.356;2024-01-30T10:12:20;22.60;49.10
19908;DHT22;10116;53.112;7.356;2024-01-30T10:14:46;22.60;49.00
19908;DHT22;10116;53.112;7.356;2024-01-30T10:17:12;22.60;48.90
19908;DHT22;10116;53.112;7.356;2024-01-30T10:19:41;22.60;49.20
19908;DHT22;10116;53.112;7.356;2024-01-30T10:22:08;22.60;49.20
19908;DHT22;10116;53.112;7.356;2024-01-30T10:24:35;22.50;48.10
19908;DHT22;10116;53.112;7.356;2024-01-30T10:27:01;22.50;48.20
19908;DHT22;10116;53.112;7.356;2024-01-30T10:29:27;22.50;48.40
19908;DHT22;10116;53.112;7.356;2024-01-30T10:32:03;22.50;47.90
19908;DHT22;10116;53.112;7.356;2024-01-30T10:34:30;22.50;59.90
19908;DHT22;10116;53.112;7.356;2024-01-30T10:37:16;22.50;48.60
19908;DHT22;10116;53.112;7.356;2024-01-30T10:39:45;22.50;49.00
19908;DHT22;10116;53.112;7.356;2024-01-30T10:42:31;22.40;48.00
19908;DHT22;10116;53.112;7.356;2024-01-30T10:45:06;22.50;49.10
19908;DHT22;10116;53.112;7.356;2024-01-30T10:47:36;22.40;60.30
19908;DHT22;10116;53.112;7.356;2024-01-30T10:50:05;22.40;48.20
19908;DHT22;10116;53.112;7.356;2024-01-30T10:52:32;22.40;47.90
19908;DHT22;10116;53.112;7.356;2024-01-30T10:54:58;22.40;48.20
19908;DHT22;10116;53.112;7.356;2024-01-30T10:57:25;22.40;48.20
19908;DHT22;10116;53.112;7.356;2024-01-30T10:59:58;22.40;48.20
19908;DHT22;10116;53.112;7.356;2024-01-30T11:02:25;22.40;48.00
19908;DHT22;10116;53.112;7.356;2024-01-30T11:04:58;22.40;49.10
19908;DHT22;10116;53.112;7.356;2024-01-30T11:07:26;22.40;49.10
19908;DHT22;10116;53.112;7.356;2024-01-30T11:09:54;22.50;49.40
19908;DHT22;10116;53.112;7.356;2024-01-30T11:12:33;22.50;50.30
19908;DHT22;10116;53.112;7.356;2024-01-30T11:15:37;22.60;50.80
19908;DHT22;10116;53.112;7.356;2024-01-30T11:17:53;22.60;51.80
19908;DHT22;10116;53.112;7.356;2024-01-30T11:20:30;22.60;53.10
19908;DHT22;10116;53.112;7.356;2024-01-30T11:22:57;22.70;53.70
19908;DHT22;10116;53.112;7.356;2024-01-30T11:25:24;22.70;53.80
19908;DHT22;10116;53.112;7.356;2024-01-30T11:27:53;22.80;54.90
19908;DHT22;10116;53.112;7.356;2024-01-30T11:30:25;22.80;54.90
19908;DHT22;10116;53.112;7.356;2024-01-30T11:35:33;22.80;55.20
19908;DHT22;10116;53.112;7.356;2024-01-30T11:38:00;22.80;56.90
19908;DHT22;10116;53.112;7.356;2024-01-30T11:40:28;22.80;56.10
19908;DHT22;10116;53.112;7.356;2024-01-30T11:42:58;22.90;56.80
19908;DHT22;10116;53.112;7.356;2024-01-30T11:45:24;22.90;56.90
19908;DHT22;10116;53.112;7.356;2024-01-30T11:47:58;22.90;57.20
19908;DHT22;10116;53.112;7.356;2024-01-30T11:50:32;22.90;57.10
19908;DHT22;10116;53.112;7.356;2024-01-30T11:53:02;22.90;57.00
19908;DHT22;10116;53.112;7.356;2024-01-30T11:55:29;22.90;57.00
19908;DHT22;10116;53.112;7.356;2024-01-30T11:57:56;22.90;57.40
19908;DHT22;10116;53.112;7.356;2024-01-30T12:00:22;22.90;57.70
19908;DHT22;10116;53.112;7.356;2024-01-30T12:02:55;22.90;58.00
19908;DHT22;10116;53.112;7.356;2024-01-30T12:05:26;22.90;57.80
19908;DHT22;10116;53.112;7.356;2024-01-30T12:07:51;22.90;59.30
19908;DHT22;10116;53.112;7.356;2024-01-30T12:10:17;22.90;57.90
19908;DHT22;10116;53.112;7.356;2024-01-30T12:12:49;22.90;58.30
19908;DHT22;10116;53.112;7.356;2024-01-30T12:15:16;22.90;57.40
19908;DHT22;10116;53.112;7.356;2024-01-30T12:17:42;22.90;58.10
19908;DHT22;10116;53.112;7.356;2024-01-30T12:20:13;22.90;58.30
19908;DHT22;10116;53.112;7.356;2024-01-30T12:22:41;22.90;57.80
19908;DHT22;10116;53.112;7.356;2024-01-30T12:25:20;22.90;58.00
19908;DHT22;10116;53.112;7.356;2024-01-30T12:27:48;22.90;58.50
19908;DHT22;10116;53.112;7.356;2024-01-30T12:30:19;22.90;57.90
19908;DHT22;10116;53.112;7.356;2024-01-30T12:32:46;22.90;58.20
19908;DHT22;10116;53.112;7.356;2024-01-30T12:35:17;22.90;58.10
19908;DHT22;10116;53.112;7.356;2024-01-30T12:37:44;22.90;58.30
19908;DHT22;10116;53.112;7.356;2024-01-30T12:40:16;22.90;58.30
19908;DHT22;10116;53.112;7.356;2024-01-30T12:42:43;22.90;58.90
19908;DHT22;10116;53.112;7.356;2024-01-30T12:45:11;22.90;59.20
19908;DHT22;10116;53.112;7.356;2024-01-30T12:47:37;23.00;59.50
19908;DHT22;10116;53.112;7.356;2024-01-30T12:50:03;23.00;61.40
19908;DHT22;10116;53.112;7.356;2024-01-30T12:52:29;23.10;61.40
19908;DHT22;10116;53.112;7.356;2024-01-30T12:54:54;23.10;62.40
19908;DHT22;10116;53.112;7.356;2024-01-30T12:57:20;23.10;61.70
19908;DHT22;10116;53.112;7.356;2024-01-30T12:59:46;23.20;64.40
19908;DHT22;10116;53.112;7.356;2024-01-30T13:02:13;23.20;63.60
19908;DHT22;10116;53.112;7.356;2024-01-30T13:04:39;23.30;64.40
19908;DHT22;10116;53.112;7.356;2024-01-30T13:07:04;23.30;65.00
19908;DHT22;10116;53.112;7.356;2024-01-30T13:09:30;23.30;65.40
19908;DHT22;10116;53.112;7.356;2024-01-30T13:11:59;23.30;65.70
19908;DHT22;10116;53.112;7.356;2024-01-30T13:14:25;23.30;65.60
19908;DHT22;10116;53.112;7.356;2024-01-30T13:16:51;23.40;65.30
19908;DHT22;10116;53.112;7.356;2024-01-30T13:19:17;23.40;65.90
19908;DHT22;10116;53.112;7.356;2024-01-30T13:21:43;23.40;66.20
19908;DHT22;10116;53.112;7.356;2024-01-30T13:24:09;23.40;65.60
19908;DHT22;10116;53.112;7.356;2024-01-30T13:26:35;23.40;65.00
19908;DHT22;10116;53.112;7.356;2024-01-30T13:29:01;23.40;65.10
19908;DHT22;10116;53.112;7.356;2024-01-30T13:31:26;23.40;65.20
19908;DHT22;10116;53.112;7.356;2024-01-30T13:33:53;23.30;64.50
19908;DHT22;10116;53.112;7.356;2024-01-30T13:36:19;23.30;63.90
19908;DHT22;10116;53.112;7.356;2024-01-30T13:38:44;23.30;63.90
19908;DHT22;10116;53.112;7.356;2024-01-30T13:41:10;23.30;63.60
19908;DHT22;10116;53.112;7.356;2024-01-30T13:43:35;23.30;63.60
19908;DHT22;10116;53.112;7.356;2024-01-30T13:46:01;23.30;63.20
19908;DHT22;10116;53.112;7.356;2024-01-30T13:48:27;23.30;63.30
19908;DHT22;10116;53.112;7.356;2024-01-30T13:50:53;23.30;63.20
19908;DHT22;10116;53.112;7.356;2024-01-30T13:53:19;23.30;62.90
19908;DHT22;10116;53.112;7.356;2024-01-30T13:55:45;23.30;63.70
19908;DHT22;10116;53.112;7.356;2024-01-30T13:58:11;23.30;63.50
19908;DHT22;10116;53.112;7.356;2024-01-30T14:00:36;23.30;63.30
19908;DHT22;10116;53.112;7.356;2024-01-30T14:03:02;23.20;63.20
19908;DHT22;10116;53.112;7.356;2024-01-30T14:05:28;23.20;62.30
19908;DHT22;10116;53.112;7.356;2024-01-30T14:07:54;23.20;62.50
19908;DHT22;10116;53.112;7.356;2024-01-30T14:10:20;23.20;62.20
19908;DHT22;10116;53.112;7.356;2024-01-30T14:12:46;23.20;62.90
19908;DHT22;10116;53.112;7.356;2024-01-30T14:15:14;23.30;62.50
19908;DHT22;10116;53.112;7.356;2024-01-30T14:17:40;23.30;62.80
19908;DHT22;10116;53.112;7.356;2024-01-30T14:20:07;23.30;63.60
19908;DHT22;10116;53.112;7.356;2024-01-30T14:22:33;23.30;65.00
19908;DHT22;10116;53.112;7.356;2024-01-30T14:25:02;23.40;65.80
19908;DHT22;10116;53.112;7.356;2024-01-30T14:27:29;23.40;64.80
19908;DHT22;10116;53.112;7.356;2024-01-30T14:29:56;23.40;66.40
19908;DHT22;10116;53.112;7.356;2024-01-30T14:32:22;23.50;65.50
19908;DHT22;10116;53.112;7.356;2024-01-30T14:34:49;23.50;65.90
19908;DHT22;10116;53.112;7.356;2024-01-30T14:37:15;23.50;66.20
19908;DHT22;10116;53.112;7.356;2024-01-30T14:39:40;23.50;65.70
19908;DHT22;10116;53.112;7.356;2024-01-30T14:42:07;23.50;65.80
19908;DHT22;10116;53.112;7.356;2024-01-30T14:44:32;23.50;65.40
19908;DHT22;10116;53.112;7.356;2024-01-30T14:46:59;23.50;65.60
19908;DHT22;10116;53.112;7.356;2024-01-30T14:49:25;23.40;65.70
19908;DHT22;10116;53.112;7.356;2024-01-30T14:51:51;23.40;65.20
19908;DHT22;10116;53.112;7.356;2024-01-30T14:54:16;23.40;64.40
19908;DHT22;10116;53.112;7.356;2024-01-30T14:56:42;23.50;64.60
19908;DHT22;10116;53.112;7.356;2024-01-30T14:59:08;23.40;64.60
19908;DHT22;10116;53.112;7.356;2024-01-30T15:01:33;23.40;64.80
19908;DHT22;10116;53.112;7.356;2024-01-30T15:03:59;23.40;65.30
19908;DHT22;10116;53.112;7.356;2024-01-30T15:06:24;23.40;64.90
19908;DHT22;10116;53.112;7.356;2024-01-30T15:08:52;23.40;64.30
19908;DHT22;10116;53.112;7.356;2024-01-30T15:11:18;23.30;62.20
19908;DHT22;10116;53.112;7.356;2024-01-30T15:13:44;23.20;60.30
19908;DHT22;10116;53.112;7.356;2024-01-30T15:16:09;23.10;60.40
19908;DHT22;10116;53.112;7.356;2024-01-30T15:18:35;23.00;58.50
19908;DHT22;10116;53.112;7.356;2024-01-30T15:21:00;22.90;57.50
19908;DHT22;10116;53.112;7.356;2024-01-30T15:23:26;22.80;56.70
19908;DHT22;10116;53.112;7.356;2024-01-30T15:25:52;22.70;56.20
19908;DHT22;10116;53.112;7.356;2024-01-30T15:28:17;22.60;54.70